Time;durP1;ratioP1;P1;durP2;ratioP2;P2;SDS_P1;SDS_P2;PMS_P1;PMS_P2;Temp;Humidity;BMP_temperature;BMP_pressure;BME280_temperature;BME280_humidity;BME280_pressure;Samples;Min_cycle;Max_cycle;Signal;HPM_P1;HPM_P2
2024/01/13 00:01:55;;;;;;;20.45;7.07;;;;;;;5.05;84.79;101899.91;5024537;27;96827;-76
2024/01/13 00:04:23;;;;;;;28.27;8.30;;;;;;;5.16;85.05;101904.31;5027500;27;96798;-75
2024/01/13 00:06:49;;;;;;;28.35;7.60;;;;;;;5.37;84.49;101894.81;5020133;27;99322;-74
2024/01/13 00:09:15;;;;;;;20.80;7.88;;;;;;;5.46;84.12;101898.31;5019757;27;98075;-73
2024/01/13 00:11:42;;;;;;;25.70;8.23;;;;;;;5.48;83.85;101891.34;5020013;27;97559;-74
2024/01/13 00:14:08;;;;;;;27.55;9.45;;;;;;;5.53;83.94;101880.84;5015819;27;96741;-76
2024/01/13 00:16:34;;;;;;;23.60;7.57;;;;;;;5.52;83.25;101889.59;5023653;27;101110;-75
2024/01/13 00:19:01;;;;;;;18.08;5.97;;;;;;;5.35;84.46;101894.78;5013917;27;98810;-72
2024/01/13 00:21:29;;;;;;;19.25;7.00;;;;;;;4.94;86.87;101893.69;5024182;27;97285;-73
2024/01/13 00:23:56;;;;;;;25.50;8.15;;;;;;;4.67;89.11;101884.81;5019386;27;96832;-73
2024/01/13 00:26:22;;;;;;;17.98;6.65;;;;;;;4.87;88.11;101890.16;5023279;27;98996;-76
2024/01/13 00:28:48;;;;;;;18.83;7.57;;;;;;;4.99;88.04;101884.16;5017019;27;101579;-75
2024/01/13 00:31:15;;;;;;;20.02;6.50;;;;;;;4.84;87.30;101890.16;5024395;27;96759;-74
2024/01/13 00:33:43;;;;;;;25.20;7.60;;;;;;;5.14;86.57;101887.69;5011801;27;96780;-75
2024/01/13 00:36:10;;;;;;;27.33;7.13;;;;;;;5.07;87.18;101891.16;5026038;27;98958;-75
2024/01/13 00:38:37;;;;;;;20.20;8.18;;;;;;;4.82;88.38;101886.66;5024837;27;99142;-76
2024/01/13 00:41:04;;;;;;;22.38;7.85;;;;;;;4.97;87.90;101885.88;5023165;27;97172;-74
2024/01/13 00:43:31;;;;;;;22.48;8.25;;;;;;;4.81;88.05;101877.03;5026793;27;96858;-74
2024/01/13 00:45:57;;;;;;;19.15;7.80;;;;;;;4.92;88.94;101885.84;5023177;27;99356;-74
2024/01/13 00:48:23;;;;;;;21.80;7.47;;;;;;;4.55;90.30;101886.47;5022272;27;98533;-74
2024/01/13 00:50:50;;;;;;;21.83;7.95;;;;;;;4.88;89.32;101881.44;5025060;27;96855;-77
2024/01/13 00:53:16;;;;;;;20.98;7.22;;;;;;;4.81;88.43;101880.53;5022357;27;97796;-73
2024/01/13 00:55:44;;;;;;;21.20;6.80;;;;;;;4.93;88.53;101876.22;5019392;27;101504;-75
2024/01/13 00:58:11;;;;;;;23.20;6.60;;;;;;;5.18;87.69;101871.16;5025093;27;101326;-75
2024/01/13 01:00:38;;;;;;;24.20;7.85;;;;;;;4.94;88.24;101873.63;5022679;27;97131;-75
2024/01/13 01:03:04;;;;;;;20.13;7.30;;;;;;;5.09;88.48;101876.34;5022825;27;98048;-74
2024/01/13 01:05:31;;;;;;;20.73;6.20;;;;;;;5.20;86.44;101864.16;5024768;27;99810;-74
2024/01/13 01:07:57;;;;;;;25.10;6.93;;;;;;;5.09;87.79;101863.22;5019951;27;98828;-75
2024/01/13 01:10:23;;;;;;;18.83;5.93;;;;;;;5.18;87.06;101863.28;5016860;27;96830;-74
2024/01/13 01:12:51;;;;;;;21.27;7.07;;;;;;;5.24;87.48;101856.31;5026477;27;97319;-74
2024/01/13 01:15:17;;;;;;;16.52;5.43;;;;;;;5.02;87.60;101857.94;5016947;27;99578;-75
2024/01/13 01:17:44;;;;;;;21.17;5.90;;;;;;;5.24;87.43;101853.69;5025631;27;98843;-75
2024/01/13 01:20:11;;;;;;;19.35;6.30;;;;;;;5.35;86.84;101847.59;5021488;27;97432;-76
2024/01/13 01:22:38;;;;;;;18.17;6.53;;;;;;;5.39;86.43;101843.22;5023875;27;97788;-76
2024/01/13 01:25:05;;;;;;;18.50;5.53;;;;;;;5.64;85.53;101845.06;5020374;27;98924;-76
2024/01/13 01:27:32;;;;;;;18.02;5.72;;;;;;;5.52;85.73;101831.91;5025943;27;99145;-74
2024/01/13 01:30:00;;;;;;;19.52;7.03;;;;;;;5.25;87.68;101835.31;5015886;27;98942;-74
2024/01/13 01:32:26;;;;;;;14.40;4.97;;;;;;;5.05;88.26;101843.13;5027104;27;100590;-73
2024/01/13 01:34:53;;;;;;;18.88;4.85;;;;;;;5.07;88.52;101841.38;5019681;27;98824;-73
2024/01/13 01:37:19;;;;;;;16.60;5.00;;;;;;;5.33;87.30;101837.97;5024189;27;98863;-73
2024/01/13 01:39:45;;;;;;;14.75;3.88;;;;;;;5.24;87.65;101835.34;5019376;27;97090;-73
2024/01/13 01:42:12;;;;;;;13.82;5.00;;;;;;;4.99;89.01;101837.84;5019019;27;97992;-73
2024/01/13 01:44:38;;;;;;;18.38;4.60;;;;;;;5.35;87.97;101834.50;5025047;27;99038;-74
2024/01/13 01:47:08;;;;;;;21.08;5.07;;;;;;;5.32;87.69;101830.97;5021770;27;99146;-73
2024/01/13 01:49:34;;;;;;;16.02;4.68;;;;;;;5.56;87.37;101825.81;5020342;27;97300;-73
2024/01/13 01:52:01;;;;;;;22.13;4.90;;;;;;;5.53;86.89;101810.06;5011294;27;97420;-74
2024/01/13 01:54:27;;;;;;;13.43;4.90;;;;;;;5.71;86.63;101814.50;5024618;27;98883;-73
2024/01/13 01:56:56;;;;;;;18.40;4.72;;;;;;;5.73;85.72;101816.22;5025286;27;98946;-73
2024/01/13 01:59:23;;;;;;;12.35;3.50;;;;;;;5.20;87.76;101814.34;5018693;27;96737;-74
2024/01/13 02:01:49;;;;;;;14.25;5.13;;;;;;;5.50;87.20;101805.72;5017623;27;96819;-74
2024/01/13 02:04:17;;;;;;;14.98;4.13;;;;;;;5.27;87.67;101812.63;5026194;27;98200;-73
2024/01/13 02:06:45;;;;;;;15.32;4.43;;;;;;;5.41;88.34;101804.81;5019880;27;98813;-74
2024/01/13 02:09:13;;;;;;;17.08;3.72;;;;;;;5.37;87.65;101806.56;5023667;27;98162;-74
2024/01/13 02:11:39;;;;;;;11.18;3.05;;;;;;;5.25;87.95;101803.88;5018567;27;96712;-74
2024/01/13 02:14:06;;;;;;;15.13;4.35;;;;;;;5.44;88.22;101799.59;5018851;27;99676;-74
2024/01/13 02:16:32;;;;;;;18.50;5.72;;;;;;;5.33;88.46;101801.28;5020846;27;97647;-73
2024/01/13 02:18:59;;;;;;;13.25;3.95;;;;;;;5.18;89.23;101800.41;5022547;27;97026;-73
2024/01/13 02:21:26;;;;;;;15.10;4.03;;;;;;;5.30;88.91;101781.19;5008693;27;100951;-74
2024/01/13 02:23:54;;;;;;;11.43;4.10;;;;;;;4.94;90.37;101781.94;5021675;27;98806;-74
2024/01/13 02:26:20;;;;;;;16.25;5.00;;;;;;;5.11;89.80;101782.91;5023749;27;100605;-74
2024/01/13 02:28:47;;;;;;;11.38;4.22;;;;;;;5.11;90.95;101774.16;5018105;27;97452;-74
2024/01/13 02:31:14;;;;;;;10.13;3.63;;;;;;;5.04;90.49;101765.41;5012364;27;97570;-75
2024/01/13 02:33:40;;;;;;;15.20;4.22;;;;;;;5.35;89.17;101763.72;5027171;27;99498;-73
2024/01/13 02:36:07;;;;;;;14.98;4.90;;;;;;;5.32;89.42;101770.69;5021551;27;98743;-73
2024/01/13 02:38:33;;;;;;;14.02;3.90;;;;;;;5.61;87.46;101758.53;5020233;27;96849;-73
2024/01/13 02:41:01;;;;;;;10.68;4.35;;;;;;;5.40;88.47;101748.88;5026918;27;96887;-73
2024/01/13 02:43:27;;;;;;;16.15;4.18;;;;;;;5.22;91.05;101747.13;5017003;27;98889;-73
2024/01/13 02:45:53;;;;;;;17.10;4.43;;;;;;;5.60;89.06;101736.69;5022989;27;98871;-73
2024/01/13 02:48:21;;;;;;;11.23;4.35;;;;;;;5.74;87.91;101734.06;5028707;27;96815;-75
2024/01/13 02:50:53;;;;;;;15.60;4.13;;;;;;;5.45;88.86;101728.78;5026443;27;96910;-75
2024/01/13 02:53:19;;;;;;;11.40;3.20;;;;;;;5.22;90.64;101720.91;5021532;27;100924;-75
2024/01/13 02:55:45;;;;;;;16.15;3.97;;;;;;;5.20;90.65;101714.78;5026064;27;99298;-75
2024/01/13 02:58:13;;;;;;;12.10;3.80;;;;;;;5.41;90.44;101711.31;5020807;27;97684;-75
2024/01/13 03:00:39;;;;;;;9.63;4.03;;;;;;;5.06;90.92;101707.75;5016842;27;97682;-76
2024/01/13 03:03:06;;;;;;;6.90;3.15;;;;;;;5.03;91.28;101699.91;5021597;27;101411;-75
2024/01/13 03:05:32;;;;;;;13.65;3.97;;;;;;;5.14;91.94;101704.28;5029203;27;99159;-75
2024/01/13 03:07:58;;;;;;;9.32;3.67;;;;;;;5.41;90.17;101703.47;5023416;27;97047;-75
2024/01/13 03:10:25;;;;;;;10.68;3.80;;;;;;;5.68;88.77;101692.09;5024361;27;96805;-75
2024/01/13 03:12:51;;;;;;;6.32;3.38;;;;;;;5.64;89.04;101687.75;5018785;27;101210;-75
2024/01/13 03:15:19;;;;;;;9.23;3.67;;;;;;;5.04;90.85;101686.81;5025467;27;99663;-75
2024/01/13 03:17:46;;;;;;;9.02;3.33;;;;;;;4.85;92.63;101697.25;5026453;27;97140;-75
2024/01/13 03:20:13;;;;;;;11.52;3.58;;;;;;;5.27;91.22;101697.31;5021958;27;97780;-74
2024/01/13 03:22:39;;;;;;;7.90;3.83;;;;;;;5.56;90.02;101692.13;5021123;27;102029;-74
2024/01/13 03:25:07;;;;;;;9.07;3.38;;;;;;;5.39;89.98;101691.22;5022431;27;98767;-74
2024/01/13 03:27:34;;;;;;;6.93;3.45;;;;;;;5.44;90.30;101690.38;5021963;27;96783;-74
2024/01/13 03:30:01;;;;;;;6.47;3.22;;;;;;;5.25;91.12;101675.47;5024475;27;96809;-74
2024/01/13 03:32:28;;;;;;;9.75;4.25;;;;;;;5.17;91.62;101675.50;5027453;27;98884;-74
2024/01/13 03:34:55;;;;;;;8.82;3.65;;;;;;;4.81;93.71;101668.41;5018507;27;97767;-75
2024/01/13 03:37:22;;;;;;;7.32;3.70;;;;;;;4.82;94.42;101669.28;5029456;27;97178;-74
2024/01/13 03:39:50;;;;;;;7.82;4.15;;;;;;;5.05;94.40;101669.38;5020359;27;98255;-75
2024/01/13 03:42:17;;;;;;;11.35;4.35;;;;;;;4.76;94.72;101682.38;5018429;27;100973;-74
2024/01/13 03:44:43;;;;;;;6.97;3.95;;;;;;;4.82;94.51;101659.69;5022105;27;99349;-74
2024/01/13 03:47:10;;;;;;;8.32;4.43;;;;;;;4.65;95.48;101664.03;5023493;27;97136;-75
2024/01/13 03:49:38;;;;;;;15.20;5.43;;;;;;;4.39;97.80;101658.69;5019184;27;96744;-75
2024/01/13 03:52:06;;;;;;;9.10;5.10;;;;;;;4.38;98.23;101659.56;5023462;27;98803;-75
2024/01/13 03:54:32;;;;;;;9.27;5.07;;;;;;;4.79;96.76;101653.59;5027318;27;99167;-75
2024/01/13 03:56:59;;;;;;;6.57;4.05;;;;;;;4.18;98.17;101653.34;5018582;27;96929;-76
2024/01/13 03:59:26;;;;;;;11.02;4.15;;;;;;;4.11;100.00;101659.41;5026092;27;96759;-75
2024/01/13 04:01:52;;;;;;;11.45;4.63;;;;;;;4.74;97.23;101650.94;5025426;27;99161;-75
2024/01/13 04:04:18;;;;;;;6.88;4.50;;;;;;;5.05;95.09;101654.53;5022849;27;97821;-75
2024/01/13 04:06:46;;;;;;;12.07;5.07;;;;;;;4.69;95.19;101647.44;5026489;27;96892;-75
2024/01/13 04:09:12;;;;;;;8.63;5.22;;;;;;;5.20;94.27;101654.50;5024181;27;97057;-74
2024/01/13 04:11:39;;;;;;;8.15;4.70;;;;;;;5.71;91.68;101654.53;5017601;27;98744;-74
2024/01/13 04:14:05;;;;;;;10.77;4.60;;;;;;;5.72;89.44;101651.88;5021377;27;99021;-74
2024/01/13 04:16:31;;;;;;;11.38;4.90;;;;;;;5.93;88.53;101651.88;5028222;27;96834;-73
2024/01/13 04:18:58;;;;;;;9.32;4.90;;;;;;;5.49;91.14;101645.78;5023372;27;96766;-75
2024/01/13 04:21:24;;;;;;;6.55;4.63;;;;;;;5.54;91.28;101644.03;5015983;27;98914;-74
2024/01/13 04:23:53;;;;;;;6.90;4.15;;;;;;;5.54;89.90;101636.16;5026370;27;96700;-75
2024/01/13 04:26:20;;;;;;;6.50;4.07;;;;;;;4.52;94.79;101622.97;5025045;27;97542;-75
2024/01/13 04:28:46;;;;;;;7.93;4.60;;;;;;;4.62;95.14;101626.47;5021781;27;96942;-76
2024/01/13 04:31:13;;;;;;;8.75;4.53;;;;;;;4.72;95.31;101617.78;5022197;27;99214;-74
2024/01/13 04:33:39;;;;;;;7.40;4.40;;;;;;;4.92;95.46;101642.28;5026528;27;97785;-75
2024/01/13 04:36:06;;;;;;;8.55;3.85;;;;;;;4.91;93.92;101627.44;5020485;27;99175;-74
2024/01/13 04:38:32;;;;;;;8.45;5.03;;;;;;;4.59;96.05;101631.72;5026495;27;97553;-73
2024/01/13 04:41:00;;;;;;;8.13;3.70;;;;;;;4.52;96.18;101633.44;5023053;27;97027;-74
2024/01/13 04:43:26;;;;;;;6.80;4.35;;;;;;;4.72;96.12;101629.13;5022439;27;101927;-74
2024/01/13 04:45:53;;;;;;;8.57;4.55;;;;;;;4.99;94.06;101625.66;5026534;27;96708;-74
2024/01/13 04:48:19;;;;;;;6.63;4.20;;;;;;;4.93;94.25;101627.41;5025209;27;96915;-74
2024/01/13 04:50:46;;;;;;;8.48;4.20;;;;;;;4.64;94.86;101615.16;5023851;27;98987;-74
2024/01/13 04:53:12;;;;;;;7.03;3.95;;;;;;;4.78;95.30;101613.44;5018105;27;98776;-75
2024/01/13 04:55:38;;;;;;;6.82;3.80;;;;;;;4.85;94.45;101603.84;5025472;27;96784;-75
2024/01/13 04:58:06;;;;;;;6.07;3.58;;;;;;;5.11;93.86;101599.50;5023489;27;96729;-76
2024/01/13 05:00:34;;;;;;;8.95;4.10;;;;;;;5.37;92.33;101603.88;5020821;27;98750;-75
2024/01/13 05:03:01;;;;;;;5.55;3.40;;;;;;;5.35;91.75;101600.38;5016163;27;99295;-74
2024/01/13 05:05:27;;;;;;;4.80;3.45;;;;;;;5.13;93.58;101600.34;5022556;27;97110;-74
2024/01/13 05:07:54;;;;;;;6.80;4.00;;;;;;;4.84;94.68;101604.72;5027428;27;96730;-74
2024/01/13 05:10:21;;;;;;;8.07;4.30;;;;;;;5.06;93.58;101606.47;5025154;27;99310;-74
2024/01/13 05:12:47;;;;;;;9.10;3.65;;;;;;;4.87;93.80;101607.31;5023951;27;98873;-75
2024/01/13 05:15:15;;;;;;;5.68;3.95;;;;;;;4.90;95.55;101609.09;5022137;27;96893;-75
2024/01/13 05:17:41;;;;;;;7.93;3.78;;;;;;;5.18;94.28;101601.25;5026506;27;96681;-75
2024/01/13 05:20:09;;;;;;;5.88;3.67;;;;;;;5.47;92.50;101598.59;5023214;27;99203;-75
2024/01/13 05:22:35;;;;;;;6.57;3.70;;;;;;;4.98;93.22;101599.50;5017613;27;98821;-76
2024/01/13 05:25:01;;;;;;;6.60;3.83;;;;;;;5.01;94.04;101594.25;5012616;27;98771;-76
2024/01/13 05:27:28;;;;;;;7.30;4.38;;;;;;;5.09;93.72;101585.53;5021389;27;96984;-75
2024/01/13 05:29:54;;;;;;;8.02;4.20;;;;;;;5.41;92.23;101596.00;5024584;27;98911;-75
2024/01/13 05:32:22;;;;;;;6.28;4.07;;;;;;;5.23;91.82;101588.16;5023784;27;98849;-75
2024/01/13 05:34:48;;;;;;;7.30;3.80;;;;;;;5.39;91.31;101597.72;5025531;27;96791;-75
2024/01/13 05:37:14;;;;;;;6.85;3.38;;;;;;;5.49;89.88;101588.13;5026992;27;96835;-75
2024/01/13 05:39:41;;;;;;;6.10;3.85;;;;;;;4.93;93.09;101588.13;5025507;28;99405;-75
2024/01/13 05:42:08;;;;;;;5.93;3.22;;;;;;;4.66;94.77;101587.22;5023796;27;98942;-74
2024/01/13 05:44:34;;;;;;;5.35;3.55;;;;;;;4.92;94.33;101574.19;5024637;27;97143;-74
2024/01/13 05:47:01;;;;;;;5.88;3.70;;;;;;;5.00;94.80;101582.00;5025428;27;96805;-74
2024/01/13 05:49:28;;;;;;;8.07;4.18;;;;;;;4.48;95.80;101575.81;5018115;27;99017;-74
2024/01/13 05:51:55;;;;;;;9.75;3.97;;;;;;;4.79;95.38;101573.25;5025432;27;98577;-74
2024/01/13 05:54:21;;;;;;;6.97;4.55;;;;;;;4.85;94.64;101569.81;5021396;27;96964;-74
2024/01/13 05:56:47;;;;;;;7.00;4.45;;;;;;;4.66;95.74;101565.41;5020442;27;101005;-74
2024/01/13 05:59:14;;;;;;;7.75;4.30;;;;;;;4.80;95.14;101566.28;5020419;27;99312;-74
2024/01/13 06:01:40;;;;;;;7.13;4.55;;;;;;;4.35;98.00;101567.06;5020873;27;97632;-74
2024/01/13 06:04:06;;;;;;;7.75;4.30;;;;;;;4.51;96.58;101565.38;5017266;27;96746;-74
2024/01/13 06:06:34;;;;;;;12.05;5.53;;;;;;;4.78;96.20;101557.56;5019022;27;97202;-74
2024/01/13 06:09:01;;;;;;;7.38;4.15;;;;;;;4.52;95.10;101557.53;5023878;27;98791;-74
2024/01/13 06:11:27;;;;;;;8.80;5.15;;;;;;;4.93;95.97;101556.69;5028328;27;99625;-74
2024/01/13 06:13:55;;;;;;;8.30;5.57;;;;;;;4.89;94.84;101554.94;5020704;27;101024;-73
2024/01/13 06:16:22;;;;;;;9.15;5.07;;;;;;;4.43;96.11;101551.41;5019913;27;97231;-73
2024/01/13 06:18:48;;;;;;;10.30;5.18;;;;;;;4.65;96.65;101540.97;5029931;27;102580;-74
2024/01/13 06:21:14;;;;;;;10.73;5.00;;;;;;;4.51;95.97;101541.81;5015320;27;99131;-74
2024/01/13 06:23:42;;;;;;;10.02;5.90;;;;;;;4.39;99.28;101542.69;5020219;27;96798;-73
2024/01/13 06:26:08;;;;;;;9.02;5.07;;;;;;;4.55;97.01;101540.94;5025769;27;97020;-73
2024/01/13 06:28:35;;;;;;;10.55;6.10;;;;;;;4.72;96.49;101531.38;5028354;27;98613;-73
2024/01/13 06:31:01;;;;;;;12.68;6.60;;;;;;;4.77;96.17;101540.13;5024457;27;99224;-73
2024/01/13 06:33:27;;;;;;;8.77;5.93;;;;;;;5.14;94.63;101534.00;5022407;27;97543;-73
2024/01/13 06:35:54;;;;;;;11.30;5.82;;;;;;;5.09;93.54;101525.28;5030276;27;97307;-73
2024/01/13 06:38:20;;;;;;;9.63;4.80;;;;;;;4.58;96.10;101520.03;5026452;27;99163;-73
2024/01/13 06:40:48;;;;;;;9.18;5.38;;;;;;;4.57;96.86;101515.66;5026239;27;98755;-73
2024/01/13 06:43:14;;;;;;;9.07;5.88;;;;;;;4.79;96.30;101520.06;5026434;27;96767;-73
2024/01/13 06:45:40;;;;;;;7.47;4.90;;;;;;;4.68;95.84;101517.41;5028464;27;96714;-73
2024/01/13 06:48:06;;;;;;;7.65;5.30;;;;;;;4.82;96.64;101512.19;5029281;27;99311;-74
2024/01/13 06:50:33;;;;;;;12.40;5.65;;;;;;;5.08;94.92;101517.41;5021082;27;99306;-76
2024/01/13 06:52:59;;;;;;;7.32;5.32;;;;;;;5.09;94.10;101503.44;5024174;27;96860;-76
2024/01/13 06:55:25;;;;;;;7.07;4.30;;;;;;;5.02;93.63;101510.44;5027766;27;96770;-75
2024/01/13 06:57:53;;;;;;;5.85;4.15;;;;;;;4.35;97.12;101499.91;5028789;27;99215;-74
2024/01/13 07:00:20;;;;;;;8.65;5.00;;;;;;;4.54;97.66;101494.69;5024903;27;98906;-75
2024/01/13 07:02:46;;;;;;;6.90;4.45;;;;;;;4.57;97.18;101490.34;5019319;27;96718;-73
2024/01/13 07:05:12;;;;;;;5.93;4.40;;;;;;;4.82;96.50;101488.63;5026732;27;97633;-74
2024/01/13 07:07:40;;;;;;;5.68;4.00;;;;;;;4.55;96.81;101489.47;5016711;28;99183;-74
2024/01/13 07:10:07;;;;;;;8.90;4.53;;;;;;;4.62;97.42;101485.13;5027962;27;99152;-74
2024/01/13 07:12:34;;;;;;;8.38;4.18;;;;;;;4.98;95.12;101482.50;5026599;27;99162;-74
2024/01/13 07:15:01;;;;;;;6.10;4.03;;;;;;;5.36;93.16;101484.19;5026324;27;96865;-74
2024/01/13 07:17:28;;;;;;;4.25;2.70;;;;;;;4.67;95.31;101483.38;5022621;27;98908;-75
2024/01/13 07:19:54;;;;;;;5.03;3.78;;;;;;;4.55;97.94;101475.50;5027228;27;99385;-74
2024/01/13 07:22:20;;;;;;;4.93;3.30;;;;;;;4.71;97.03;101475.53;5023463;27;96987;-74
2024/01/13 07:24:48;;;;;;;6.18;3.80;;;;;;;4.99;95.14;101468.50;5026465;27;96786;-74
2024/01/13 07:27:15;;;;;;;5.57;3.45;;;;;;;5.17;94.41;101467.63;5024575;27;99119;-74
2024/01/13 07:29:41;;;;;;;6.78;3.95;;;;;;;5.27;93.55;101465.84;5027110;27;98954;-75
2024/01/13 07:32:09;;;;;;;5.50;3.38;;;;;;;5.37;92.07;101462.34;5022782;27;97143;-74
2024/01/13 07:34:35;;;;;;;8.93;3.55;;;;;;;5.02;93.88;101463.28;5013356;27;98852;-74
2024/01/13 07:37:01;;;;;;;3.75;2.72;;;;;;;4.67;94.69;101457.19;5007265;28;99023;-74
2024/01/13 07:39:28;;;;;;;5.05;3.20;;;;;;;4.70;96.22;101452.84;5011233;27;100930;-75
2024/01/13 07:41:54;;;;;;;5.90;3.30;;;;;;;4.64;96.72;101455.47;5022088;27;97397;-76
2024/01/13 07:44:20;;;;;;;3.03;1.85;;;;;;;4.58;97.29;101451.97;5020116;27;97815;-74
2024/01/13 07:46:47;;;;;;;3.53;2.60;;;;;;;4.54;97.02;101448.47;5021270;27;99388;-74
2024/01/13 07:49:15;;;;;;;2.40;1.77;;;;;;;4.04;99.39;101450.16;5019571;27;99818;-74
2024/01/13 07:51:41;;;;;;;5.20;3.38;;;;;;;4.19;100.00;101443.22;5016511;27;96765;-74
2024/01/13 07:54:07;;;;;;;4.60;2.70;;;;;;;4.53;98.40;101433.63;5021686;27;97360;-76
2024/01/13 07:56:35;;;;;;;5.15;3.03;;;;;;;4.94;95.32;101437.97;5021277;27;99236;-75
2024/01/13 07:59:03;;;;;;;4.45;2.72;;;;;;;4.62;95.53;101431.03;5023355;27;97689;-75
2024/01/13 08:01:29;;;;;;;3.78;2.28;;;;;;;4.09;98.30;101437.94;5019696;27;97042;-74
2024/01/13 08:03:56;;;;;;;3.00;2.38;;;;;;;4.62;97.80;101427.53;5019216;27;98639;-72
2024/01/13 08:06:24;;;;;;;5.30;2.10;;;;;;;4.22;98.89;101426.63;5025928;27;101936;-72
2024/01/13 08:08:50;;;;;;;2.75;2.30;;;;;;;4.72;96.69;101429.28;5022916;27;99393;-71
2024/01/13 08:11:17;;;;;;;3.45;2.17;;;;;;;4.47;97.95;101427.50;5019031;27;97281;-72
2024/01/13 08:13:43;;;;;;;2.40;2.10;;;;;;;4.72;96.77;101424.06;5026413;27;96878;-72
2024/01/13 08:16:09;;;;;;;2.50;1.92;;;;;;;4.38;97.87;101412.72;5026119;27;99356;-71
2024/01/13 08:18:36;;;;;;;2.92;2.08;;;;;;;4.53;96.94;101422.31;5020070;27;97602;-71
2024/01/13 08:21:03;;;;;;;2.33;1.95;;;;;;;4.37;97.26;101424.91;5026050;27;97202;-71
2024/01/13 08:23:30;;;;;;;2.70;2.15;;;;;;;4.19;98.69;101416.19;5023064;27;97685;-70
2024/01/13 08:25:57;;;;;;;2.58;1.88;;;;;;;4.14;99.82;101416.16;5025559;28;99694;-72
2024/01/13 08:28:24;;;;;;;2.47;2.13;;;;;;;4.47;97.72;101422.28;5024837;27;100215;-70
2024/01/13 08:30:50;;;;;;;3.00;1.98;;;;;;;4.62;96.70;101417.06;5024330;27;96848;-70
2024/01/13 08:33:17;;;;;;;2.17;1.73;;;;;;;4.12;98.29;101415.31;5016928;27;96951;-70
2024/01/13 08:35:44;;;;;;;2.78;1.85;;;;;;;4.38;98.12;101403.13;5018384;27;99354;-69
2024/01/13 08:38:11;;;;;;;2.20;1.92;;;;;;;4.44;98.08;101415.31;5025895;27;99296;-71
2024/01/13 08:40:40;;;;;;;2.72;2.20;;;;;;;4.92;95.35;101403.94;5015976;27;97744;-70
2024/01/13 08:43:08;;;;;;;3.60;2.03;;;;;;;4.35;97.36;101410.06;5019776;28;97022;-72
2024/01/13 08:45:37;;;;;;;3.80;1.88;;;;;;;4.37;96.84;101405.72;5018426;27;101374;-71
2024/01/13 08:48:04;;;;;;;2.58;2.15;;;;;;;5.04;95.33;101413.53;5018465;27;102127;-71
2024/01/13 08:50:32;;;;;;;2.90;2.10;;;;;;;4.53;96.01;101406.63;5025326;27;97208;-72
2024/01/13 08:52:58;;;;;;;3.28;2.15;;;;;;;4.43;97.46;101410.09;5027147;27;96809;-72
2024/01/13 08:55:25;;;;;;;3.13;1.60;;;;;;;3.85;99.16;101394.31;5024633;27;98980;-73
2024/01/13 08:57:55;;;;;;;3.85;1.80;;;;;;;4.13;99.38;101400.50;5023579;27;98982;-72
2024/01/13 09:00:22;;;;;;;2.72;2.28;;;;;;;4.43;99.33;101402.22;5023232;27;96868;-72
2024/01/13 09:02:49;;;;;;;2.58;1.88;;;;;;;4.68;96.88;101394.38;5019414;27;98989;-71
2024/01/13 09:05:15;;;;;;;2.63;2.03;;;;;;;4.34;97.04;101390.00;5019253;27;99847;-75
2024/01/13 09:07:42;;;;;;;2.13;1.50;;;;;;;4.27;97.66;101375.19;5021662;27;98827;-71
2024/01/13 09:10:09;;;;;;;3.33;1.98;;;;;;;4.64;96.51;101370.81;5021464;27;97405;-71
2024/01/13 09:12:36;;;;;;;3.42;2.22;;;;;;;5.09;94.67;101362.84;5013575;27;96743;-70
2024/01/13 09:15:06;;;;;;;5.93;1.73;;;;;;;5.32;93.25;101357.50;5026861;27;99574;-71
2024/01/13 09:17:32;;;;;;;3.10;1.88;;;;;;;4.77;95.20;101354.22;5023199;28;97648;-70
2024/01/13 09:19:59;;;;;;;2.97;2.13;;;;;;;4.91;93.68;101344.59;5020349;27;97052;-72
2024/01/13 09:22:25;;;;;;;4.93;2.25;;;;;;;4.76;94.37;101340.25;5017502;27;96841;-71
2024/01/13 09:24:52;;;;;;;2.75;2.05;;;;;;;4.90;93.48;101334.09;5021754;27;98898;-71
2024/01/13 09:27:18;;;;;;;3.15;2.05;;;;;;;4.50;96.01;101338.56;5027467;27;99137;-70
2024/01/13 09:29:45;;;;;;;3.13;2.20;;;;;;;5.32;93.94;101343.53;5020455;27;96971;-70
2024/01/13 09:32:13;;;;;;;2.85;2.03;;;;;;;5.10;93.00;101354.13;5020179;27;97541;-70
2024/01/13 09:34:42;;;;;;;3.15;2.55;;;;;;;4.70;94.80;101358.59;5026825;27;98257;-71
2024/01/13 09:37:10;;;;;;;4.15;2.13;;;;;;;4.49;96.77;101348.16;5019139;27;99499;-72
2024/01/13 09:39:36;;;;;;;2.75;2.15;;;;;;;4.62;95.30;101333.28;5021775;27;97732;-70
2024/01/13 09:42:04;;;;;;;2.72;2.17;;;;;;;4.93;93.78;101334.94;5023759;27;97352;-71
2024/01/13 09:44:32;;;;;;;2.05;1.77;;;;;;;4.93;93.27;101331.47;5015132;27;99450;-71
2024/01/13 09:46:59;;;;;;;2.20;1.88;;;;;;;4.81;94.66;101340.22;5019167;27;99512;-71
2024/01/13 09:49:29;;;;;;;2.38;1.75;;;;;;;5.06;93.13;101331.41;5021165;27;97194;-71
2024/01/13 09:51:57;;;;;;;6.90;2.35;;;;;;;5.19;92.10;101327.88;5017488;28;97241;-71
2024/01/13 09:54:25;;;;;;;2.40;1.75;;;;;;;4.51;93.28;101317.63;5018297;27;99122;-70
2024/01/13 09:56:52;;;;;;;2.38;1.85;;;;;;;4.55;95.24;101310.63;5024277;27;98944;-72
2024/01/13 09:59:20;;;;;;;2.97;1.70;;;;;;;4.64;96.09;101297.53;5023828;27;96752;-71
2024/01/13 10:01:46;;;;;;;2.55;2.10;;;;;;;5.05;94.27;101310.50;5013983;27;97179;-71
2024/01/13 10:04:16;;;;;;;5.05;1.80;;;;;;;5.03;92.64;101297.38;5022199;27;98885;-71
2024/01/13 10:06:45;;;;;;;2.63;1.90;;;;;;;5.27;91.79;101314.75;5018795;27;101819;-76
2024/01/13 10:09:11;;;;;;;4.25;1.83;;;;;;;4.26;96.51;101310.69;5019761;27;96730;-76
2024/01/13 10:11:38;;;;;;;2.05;1.73;;;;;;;4.72;96.23;101301.00;5013751;27;96798;-75
2024/01/13 10:14:06;;;;;;;3.50;1.88;;;;;;;5.07;94.08;101313.94;5021558;27;99601;-76
2024/01/13 10:16:33;;;;;;;2.80;1.90;;;;;;;4.78;94.04;101314.94;5024130;27;102261;-76
2024/01/13 10:19:01;;;;;;;2.75;2.03;;;;;;;4.59;95.62;101320.22;5017344;27;97101;-76
2024/01/13 10:21:28;;;;;;;2.72;1.85;;;;;;;4.46;96.56;101311.53;5022108;27;97298;-76
2024/01/13 10:23:57;;;;;;;2.20;2.00;;;;;;;4.81;95.30;101300.94;5022293;27;99286;-71
2024/01/13 10:26:27;;;;;;;1.45;1.35;;;;;;;4.79;94.06;101289.63;5025720;27;98342;-71
2024/01/13 10:28:53;;;;;;;2.63;1.70;;;;;;;4.34;97.45;101309.78;5018825;27;99702;-71
2024/01/13 10:31:20;;;;;;;2.53;1.70;;;;;;;4.14;99.17;101302.81;5020001;27;97154;-72
2024/01/13 10:33:47;;;;;;;2.08;1.70;;;;;;;4.25;98.79;101301.09;5020217;27;102242;-71
2024/01/13 10:36:14;;;;;;;1.88;1.67;;;;;;;4.37;97.19;101304.56;5022086;27;98950;-70
2024/01/13 10:38:42;;;;;;;2.70;2.17;;;;;;;4.52;97.21;101308.03;5015084;27;96822;-71
2024/01/13 10:41:10;;;;;;;4.00;2.20;;;;;;;4.34;97.33;101304.53;5016295;27;97135;-71
2024/01/13 10:43:40;;;;;;;2.22;1.95;;;;;;;4.47;97.66;101304.53;5019076;27;98341;-71
2024/01/13 10:46:11;;;;;;;10.48;1.90;;;;;;;4.46;96.82;101285.34;5017293;27;99027;-73
2024/01/13 10:48:42;;;;;;;2.00;1.80;;;;;;;4.65;95.94;101283.56;5022513;27;97373;-72
2024/01/13 10:51:16;;;;;;;3.05;1.40;;;;;;;4.32;96.90;101277.53;5019873;28;98168;-71
2024/01/13 10:53:46;;;;;;;2.72;1.70;;;;;;;4.24;98.26;101283.63;5027377;27;99381;-71
2024/01/13 10:56:15;;;;;;;13.15;2.45;;;;;;;4.55;97.38;101253.03;5026843;27;99741;-70
2024/01/13 10:58:45;;;;;;;1.25;1.15;;;;;;;4.63;94.99;101266.97;5026801;27;100473;-72
2024/01/13 11:01:11;;;;;;;2.05;1.50;;;;;;;4.71;95.85;101252.13;5024400;27;96790;-72
2024/01/13 11:03:39;;;;;;;1.92;1.35;;;;;;;4.70;94.90;101237.28;5027310;27;97769;-71
2024/01/13 11:06:06;;;;;;;1.50;1.23;;;;;;;4.73;94.59;101232.91;5018982;28;99568;-72
2024/01/13 11:08:32;;;;;;;2.35;1.45;;;;;;;4.96;94.47;101219.72;5019401;27;97081;-71
2024/01/13 11:11:01;;;;;;;1.30;1.20;;;;;;;4.71;94.28;101210.25;5019920;28;97572;-71
2024/01/13 11:13:33;;;;;;;1.55;1.38;;;;;;;4.60;95.28;101198.91;5022004;27;98074;-71
2024/01/13 11:16:05;;;;;;;2.25;1.83;;;;;;;4.61;95.61;101195.44;5024725;27;99376;-72
2024/01/13 11:18:36;;;;;;;1.67;1.27;;;;;;;4.77;94.69;101189.28;5023052;27;97777;-71
2024/01/13 11:21:04;;;;;;;1.33;1.23;;;;;;;4.47;96.71;101190.25;5024530;27;97448;-71
2024/01/13 11:23:37;;;;;;;1.20;1.10;;;;;;;4.77;96.50;101181.41;5020736;27;99269;-71
2024/01/13 11:26:03;;;;;;;1.13;1.02;;;;;;;4.81;94.29;101173.53;5024662;27;99257;-71
2024/01/13 11:28:47;;;;;;;1.88;1.50;;;;;;;4.91;94.09;101170.88;5023025;27;98902;-71